This is the latest recevied weather packets stored in our database for station/object kj4yre. If no packets are shown the sender has not sent any weather packets the latest 10 day(s).
| Time | Temp. | Humidity | Pressure | Rain* | Wind** | Luminosity | Snow |
|---|---|---|---|---|---|---|---|
| 1778002936 | 27.78° C | 36% | 1014.5 hPa | 0 mm | - | - | - |
| 1778002336 | 27.78° C | 37% | 1014.5 hPa | 0 mm | - | - | - |
| 1778002037 | 27.78° C | 37% | 1014.6 hPa | 0 mm | - | - | - |
| 1778001136 | 28.33° C | 39% | 1014.7 hPa | 0 mm | - | - | - |
| 1778000235 | 26.67° C | 42% | 1014.8 hPa | 0 mm | - | - | - |
| 1777999936 | 28.33° C | 41% | 1014.9 hPa | 0 mm | - | - | - |
| 1777998736 | 27.22° C | 42% | 1015.4 hPa | 0 mm | - | - | - |
| 1777998135 | 26.67° C | 45% | 1015.6 hPa | 0 mm | - | - | - |
| 1777994535 | 24.44° C | 50% | 1015.8 hPa | 0 mm | - | - | - |
| 1777993935 | 24.44° C | 52% | 1015.8 hPa | 0 mm | - | - | - |
| 1777992436 | 23.33° C | 55% | 1016 hPa | 0 mm | - | - | - |
| 1777989435 | 21.11° C | 59% | 1016.2 hPa | 0 mm | - | - | - |
| 1777989136 | 20.56° C | 61% | 1016.2 hPa | 0 mm | - | - | - |
| 1777987037 | 20° C | 64% | 1016.5 hPa | 0 mm | - | - | - |
| 1777986736 | 19.44° C | 64% | 1016.5 hPa | 0 mm | - | - | - |
| 1777986136 | 19.44° C | 66% | 1016.5 hPa | 0 mm | - | - | - |
| 1777985837 | 19.44° C | 66% | 1016.4 hPa | 0 mm | - | - | - |
| 1777984936 | 18.33° C | 69% | 1016.6 hPa | 0 mm | - | - | - |
| 1777983736 | 17.78° C | 71% | 1016.6 hPa | 0 mm | - | - | - |
| 1777982837 | 17.22° C | 74% | 1016.6 hPa | 0 mm | - | - | - |
| 1777980138 | 15.56° C | 79% | 1016.4 hPa | 0 mm | - | - | - |
| 1777978036 | 15° C | 82% | 1016.2 hPa | 0 mm | - | - | - |
| 1777976535 | 14.44° C | 82% | 1016.1 hPa | 0 mm | - | - | - |
| 1777975937 | 15° C | 81% | 1016 hPa | 0 mm | - | - | - |
| 1777975036 | 15° C | 80% | 1015.9 hPa | 0 mm | - | - | - |
* Rain latest hour (hover to see other rain measurements)
** Current wind speed in m/s (hover to see current wind gust speed)